createdAt,value
2019-01-24T00:01:45.718Z,47.30
2019-01-24T00:04:16.847Z,47.13
2019-01-24T00:06:46.701Z,46.70
2019-01-24T00:09:16.323Z,48.00
2019-01-24T00:11:45.938Z,46.93
2019-01-24T00:14:15.623Z,46.93
2019-01-24T00:16:45.228Z,47.67
2019-01-24T00:19:14.915Z,47.30
2019-01-24T00:21:44.535Z,46.97
2019-01-24T00:24:14.148Z,47.03
2019-01-24T00:40:40.451Z,46.60
2019-01-24T00:43:10.105Z,46.87
2019-01-24T00:45:39.842Z,48.03
2019-01-24T00:48:09.492Z,46.63
2019-01-24T00:50:39.216Z,46.60
2019-01-24T00:53:09.015Z,46.90
2019-01-24T00:55:38.884Z,47.47
2019-01-24T00:58:08.547Z,47.87
2019-01-24T01:00:38.271Z,47.27
2019-01-24T01:03:07.935Z,46.60
2019-01-24T01:05:37.586Z,46.87
2019-01-24T01:08:07.383Z,47.37
2019-01-24T01:10:37.130Z,47.30
2019-01-24T01:13:06.942Z,46.93
2019-01-24T01:15:36.591Z,47.63
2019-01-24T01:18:06.378Z,46.70
2019-01-24T01:20:36.114Z,47.43
2019-01-24T01:23:05.922Z,48.83
2019-01-24T01:25:35.642Z,48.07
2019-01-24T01:28:05.713Z,46.60
2019-01-24T01:30:35.447Z,47.27
2019-01-24T01:33:05.658Z,47.57
2019-01-24T01:35:35.451Z,47.60
2019-01-24T01:38:05.287Z,47.63
2019-01-24T01:40:35.342Z,48.27
2019-01-24T01:43:05.231Z,47.17
2019-01-24T01:45:35.011Z,48.63
2019-01-24T01:48:04.839Z,47.17
2019-01-24T01:50:34.587Z,47.90
2019-01-24T01:53:04.422Z,47.23
2019-01-24T01:55:34.203Z,47.50
2019-01-24T01:58:04.109Z,48.10
2019-01-24T02:00:33.919Z,47.50
2019-01-24T02:03:03.817Z,47.23
2019-01-24T02:05:33.539Z,47.77
2019-01-24T02:08:03.196Z,47.80
2019-01-24T02:10:32.974Z,48.20
2019-01-24T02:13:02.619Z,47.83
2019-01-24T02:15:32.351Z,47.43
2019-01-24T02:18:02.004Z,47.50
2019-01-24T02:20:31.656Z,48.83
2019-01-24T02:23:01.476Z,48.17
2019-01-24T02:25:31.275Z,47.50
2019-01-24T02:28:00.924Z,48.27
2019-01-24T02:30:30.932Z,47.53
2019-01-24T02:33:00.706Z,47.63
2019-01-24T02:35:30.742Z,47.70
2019-01-24T02:38:00.390Z,48.20
2019-01-24T02:40:30.068Z,47.83
2019-01-24T02:42:59.707Z,48.03
2019-01-24T02:45:29.363Z,47.77
2019-01-24T02:47:59.067Z,47.83
2019-01-24T02:50:28.711Z,47.17
2019-01-24T02:52:58.392Z,48.10
2019-01-24T02:55:28.116Z,49.33
2019-01-24T02:57:57.747Z,48.47
2019-01-24T03:00:27.466Z,48.27
2019-01-24T03:02:57.179Z,48.50
2019-01-24T03:05:26.824Z,48.17
2019-01-24T03:07:56.563Z,48.63
2019-01-24T03:10:26.212Z,47.87
2019-01-24T03:12:56.074Z,47.97
2019-01-24T03:15:25.790Z,48.37
2019-01-24T03:17:55.446Z,47.40
2019-01-24T03:20:25.242Z,49.27
2019-01-24T03:22:54.883Z,47.90
2019-01-24T03:25:24.682Z,48.20
2019-01-24T03:27:54.344Z,48.00
2019-01-24T03:30:24.143Z,47.67
2019-01-24T03:32:53.791Z,48.37
2019-01-24T03:35:25.654Z,47.90
2019-01-24T03:37:55.402Z,48.57
2019-01-24T03:40:25.194Z,48.30
2019-01-24T03:42:55.117Z,49.70
2019-01-24T03:45:24.775Z,48.87
2019-01-24T03:47:54.458Z,48.20
2019-01-24T03:50:24.094Z,49.17
2019-01-24T03:52:53.812Z,48.90
2019-01-24T03:55:23.782Z,48.87
2019-01-24T03:57:53.445Z,49.70
2019-01-24T04:00:26.248Z,48.43
2019-01-24T04:02:56.061Z,48.73
2019-01-24T04:05:25.890Z,48.37
2019-01-24T04:07:55.627Z,48.90
2019-01-24T04:10:25.267Z,48.23
2019-01-24T04:12:54.993Z,49.50
2019-01-24T04:15:27.499Z,47.90
2019-01-24T04:17:57.295Z,48.40
2019-01-24T04:20:27.030Z,47.97
2019-01-24T04:22:56.679Z,49.50
2019-01-24T04:25:26.323Z,49.17
2019-01-24T04:27:55.968Z,48.97
2019-01-24T04:30:25.625Z,48.37
2019-01-24T04:32:55.293Z,47.97
2019-01-24T04:35:25.905Z,48.67
2019-01-24T04:37:55.556Z,48.70
2019-01-24T04:40:25.198Z,48.67
2019-01-24T04:42:54.932Z,49.33
2019-01-24T04:45:24.595Z,49.83
2019-01-24T04:47:54.251Z,49.13
2019-01-24T04:50:23.910Z,47.77
2019-01-24T04:52:53.636Z,49.60
2019-01-24T04:55:23.277Z,48.17
2019-01-24T04:57:54.766Z,48.27
2019-01-24T05:00:26.681Z,50.07
2019-01-24T05:02:56.437Z,49.17
2019-01-24T05:05:27.925Z,49.03
2019-01-24T05:07:57.715Z,48.10
2019-01-24T05:10:27.448Z,48.47
2019-01-24T05:12:57.104Z,48.80
2019-01-24T05:15:26.738Z,47.97
2019-01-24T05:17:56.403Z,48.73
2019-01-24T05:20:26.051Z,48.20
2019-01-24T05:22:55.809Z,46.67
2019-01-24T05:25:25.525Z,47.77
2019-01-24T05:27:55.209Z,48.77
2019-01-24T05:30:28.752Z,47.20
2019-01-24T05:32:58.475Z,47.10
2019-01-24T05:35:34.504Z,48.33
2019-01-24T05:37:59.476Z,48.27
2019-01-24T05:40:29.204Z,47.83
2019-01-24T05:42:58.928Z,48.77
2019-01-24T05:45:28.563Z,48.37
2019-01-24T05:47:58.224Z,47.73
2019-01-24T05:50:27.954Z,47.40
2019-01-24T05:52:57.654Z,48.63
2019-01-24T05:55:27.315Z,47.27
2019-01-24T05:57:56.972Z,47.60
2019-01-24T06:00:35.723Z,48.20
2019-01-24T06:03:05.464Z,47.20
2019-01-24T06:05:41.580Z,47.77
2019-01-24T06:08:06.591Z,47.83
2019-01-24T06:10:36.227Z,48.00
2019-01-24T06:13:05.959Z,47.67
2019-01-24T06:15:35.595Z,47.93
2019-01-24T06:18:05.406Z,48.57
2019-01-24T06:20:35.043Z,48.07
2019-01-24T06:23:04.763Z,47.57
2019-01-24T06:25:34.554Z,47.97
2019-01-24T06:28:04.676Z,48.50
2019-01-24T06:30:34.480Z,48.50
2019-01-24T06:33:04.296Z,47.47
2019-01-24T06:35:33.935Z,47.87
2019-01-24T06:38:03.735Z,48.10
2019-01-24T06:40:33.460Z,48.53
2019-01-24T06:43:03.122Z,48.90
2019-01-24T06:45:32.755Z,47.63
2019-01-24T06:48:03.556Z,48.33
2019-01-24T06:50:33.209Z,48.97
2019-01-24T06:53:02.940Z,47.87
2019-01-24T06:55:32.782Z,47.87
2019-01-24T06:58:02.487Z,48.07
2019-01-24T07:00:32.248Z,48.93
2019-01-24T07:03:02.951Z,49.27
2019-01-24T07:05:32.629Z,48.40
2019-01-24T07:08:02.342Z,47.70
2019-01-24T07:10:32.213Z,48.93
2019-01-24T07:13:01.900Z,49.53
2019-01-24T07:15:31.623Z,47.53
2019-01-24T07:18:01.323Z,47.47
2019-01-24T07:20:30.984Z,47.33
2019-01-24T07:23:01.683Z,48.23
2019-01-24T07:25:31.484Z,47.83
2019-01-24T07:28:01.289Z,46.63
2019-01-24T07:30:31.898Z,46.60
2019-01-24T07:33:01.683Z,46.80
2019-01-24T07:35:31.371Z,48.97
2019-01-24T07:38:01.024Z,47.40
2019-01-24T07:40:30.808Z,47.83
2019-01-24T07:43:00.467Z,48.50
2019-01-24T07:45:35.794Z,48.30
2019-01-24T07:48:06.163Z,47.80
2019-01-24T07:50:35.892Z,49.70
2019-01-24T07:53:06.855Z,49.33
2019-01-24T07:55:37.780Z,47.93
2019-01-24T07:58:08.055Z,48.63
2019-01-24T08:00:37.830Z,49.40
2019-01-24T08:03:07.550Z,47.77
2019-01-24T08:05:37.966Z,50.20
2019-01-24T08:08:07.834Z,49.50
2019-01-24T08:10:37.555Z,49.53
2019-01-24T08:13:07.404Z,49.90
2019-01-24T08:15:37.415Z,49.47
2019-01-24T08:18:07.429Z,49.50
2019-01-24T08:20:37.214Z,50.97
2019-01-24T08:23:06.946Z,49.43
2019-01-24T08:25:36.685Z,50.03
2019-01-24T08:28:06.416Z,49.70
2019-01-24T08:30:36.196Z,49.20
2019-01-24T08:33:06.306Z,50.37
2019-01-24T08:35:36.125Z,49.00
2019-01-24T08:38:06.299Z,50.33
2019-01-24T08:40:35.938Z,50.43
2019-01-24T08:43:05.779Z,49.73
2019-01-24T08:45:35.438Z,49.90
2019-01-24T08:48:05.245Z,50.70
2019-01-24T08:50:34.913Z,49.77
2019-01-24T08:53:04.926Z,48.90
2019-01-24T08:55:39.480Z,49.07
2019-01-24T08:58:09.930Z,49.27
2019-01-24T09:00:39.727Z,49.23
2019-01-24T09:03:09.378Z,49.00
2019-01-24T09:05:39.043Z,48.27
2019-01-24T09:08:09.133Z,48.80
2019-01-24T09:10:40.256Z,49.77
2019-01-24T09:13:10.075Z,49.23
2019-01-24T09:15:39.845Z,47.97
2019-01-24T09:18:10.165Z,47.30
2019-01-24T09:20:39.884Z,47.67
2019-01-24T09:23:09.707Z,47.77
2019-01-24T09:25:39.620Z,47.70
2019-01-24T09:28:14.836Z,47.90
2019-01-24T09:30:40.717Z,47.17
2019-01-24T09:33:10.346Z,48.03
2019-01-24T09:35:40.017Z,47.30
2019-01-24T09:38:09.744Z,48.30
2019-01-24T09:40:39.391Z,47.60
2019-01-24T09:43:09.175Z,48.20
2019-01-24T09:45:38.977Z,49.67
2019-01-24T09:48:08.848Z,47.90
2019-01-24T09:50:38.507Z,48.73
2019-01-24T09:53:08.287Z,49.33
2019-01-24T09:55:37.960Z,49.30
2019-01-24T09:58:07.758Z,49.23
2019-01-24T10:00:38.054Z,47.77
2019-01-24T10:03:08.043Z,47.27
2019-01-24T10:05:37.784Z,48.63
2019-01-24T10:08:08.140Z,47.07
2019-01-24T10:10:37.867Z,47.73
2019-01-24T10:13:07.662Z,49.47
2019-01-24T10:15:37.484Z,49.10
2019-01-24T10:18:07.371Z,47.80
2019-01-24T10:20:37.094Z,49.20
2019-01-24T10:23:06.895Z,49.17
2019-01-24T10:25:40.140Z,48.70
2019-01-24T10:28:10.258Z,48.00
2019-01-24T10:30:43.098Z,50.00
2019-01-24T10:33:11.267Z,49.03
2019-01-24T10:35:41.069Z,48.63
2019-01-24T10:38:10.855Z,49.23
2019-01-24T10:40:40.818Z,48.07
2019-01-24T10:43:10.471Z,48.67
2019-01-24T10:45:40.284Z,48.90
2019-01-24T10:48:10.013Z,48.77
2019-01-24T10:50:39.739Z,48.33
2019-01-24T10:53:09.446Z,48.50
2019-01-24T10:55:39.176Z,48.33
2019-01-24T10:58:08.973Z,47.70
2019-01-24T11:00:42.922Z,48.47
2019-01-24T11:03:14.898Z,48.47
2019-01-24T11:05:45.689Z,49.07
2019-01-24T11:08:16.042Z,47.57
2019-01-24T11:10:45.850Z,48.43
2019-01-24T11:13:15.641Z,48.50
2019-01-24T11:15:45.331Z,50.17
2019-01-24T11:18:15.065Z,50.10
2019-01-24T11:20:44.874Z,49.33
2019-01-24T11:23:14.659Z,48.43
2019-01-24T11:25:44.507Z,47.70
2019-01-24T11:28:14.147Z,48.40
2019-01-24T11:30:43.803Z,49.37
2019-01-24T11:33:13.440Z,49.27
2019-01-24T11:35:43.175Z,47.47
2019-01-24T11:38:12.899Z,48.27
2019-01-24T11:40:42.631Z,48.67
2019-01-24T11:43:12.408Z,49.17
2019-01-24T11:45:43.610Z,49.43
2019-01-24T11:48:13.435Z,47.47
2019-01-24T11:50:43.086Z,48.57
2019-01-24T11:53:12.748Z,47.57
2019-01-24T11:55:42.529Z,49.17
2019-01-24T11:58:12.226Z,50.63
2019-01-24T12:00:49.858Z,47.93
2019-01-24T12:03:19.606Z,47.73
2019-01-24T12:05:49.400Z,48.63
2019-01-24T12:08:19.122Z,49.67
2019-01-24T12:10:48.845Z,48.63
2019-01-24T12:13:18.564Z,48.77
2019-01-24T12:15:48.220Z,47.27
2019-01-24T12:18:19.210Z,48.17
2019-01-24T12:20:48.872Z,49.53
2019-01-24T12:23:18.584Z,50.77
2019-01-24T12:25:48.234Z,48.20
2019-01-24T12:28:17.880Z,48.63
2019-01-24T12:30:47.648Z,49.00
2019-01-24T12:33:17.442Z,48.93
2019-01-24T12:35:47.172Z,48.93
2019-01-24T12:38:16.887Z,47.17
2019-01-24T12:40:46.694Z,47.93
2019-01-24T12:43:16.455Z,48.70
2019-01-24T12:45:46.105Z,48.07
2019-01-24T12:48:15.829Z,47.77
2019-01-24T12:50:45.559Z,48.80
2019-01-24T12:53:15.284Z,47.80
2019-01-24T12:55:44.939Z,48.77
2019-01-24T12:58:14.813Z,50.07
2019-01-24T13:00:44.734Z,49.20
2019-01-24T13:03:14.445Z,49.57
2019-01-24T13:05:44.182Z,48.97
2019-01-24T13:08:13.903Z,47.80
2019-01-24T13:10:47.068Z,47.07
2019-01-24T13:13:19.496Z,48.37
2019-01-24T13:15:49.154Z,49.03
2019-01-24T13:18:19.680Z,48.50
2019-01-24T13:20:49.441Z,49.07
2019-01-24T13:23:19.084Z,49.83
2019-01-24T13:25:48.820Z,50.33
2019-01-24T13:28:18.527Z,50.07
2019-01-24T13:30:48.221Z,51.43
2019-01-24T13:33:17.853Z,50.17
2019-01-24T13:35:47.657Z,48.77
2019-01-24T13:38:17.314Z,49.33
2019-01-24T13:40:47.055Z,48.43
2019-01-24T13:43:16.787Z,48.87
2019-01-24T13:45:46.514Z,48.73
2019-01-24T13:48:16.201Z,49.03
2019-01-24T13:50:45.866Z,48.47
2019-01-24T13:53:15.589Z,49.13
2019-01-24T13:55:45.340Z,49.50
2019-01-24T13:58:15.067Z,49.57
2019-01-24T14:00:49.967Z,49.00
2019-01-24T14:03:50.445Z,48.70
2019-01-24T14:06:25.809Z,47.23
2019-01-24T14:08:59.890Z,48.57
2019-01-24T14:11:31.223Z,49.23
2019-01-24T14:14:00.881Z,48.47
2019-01-24T14:16:30.588Z,47.57
2019-01-24T14:19:00.400Z,48.43
2019-01-24T14:21:30.143Z,47.33
2019-01-24T14:23:59.782Z,48.33
2019-01-24T14:26:29.591Z,48.23
2019-01-24T14:28:59.253Z,47.83
2019-01-24T14:31:29.044Z,47.03
2019-01-24T14:33:58.682Z,46.90
2019-01-24T14:36:29.409Z,48.40
2019-01-24T14:38:59.201Z,49.30
2019-01-24T14:41:28.924Z,47.93
2019-01-24T14:43:58.650Z,47.17
2019-01-24T14:46:28.293Z,48.73
2019-01-24T14:48:58.016Z,48.07
2019-01-24T14:51:27.782Z,47.20
2019-01-24T14:53:57.507Z,48.30
2019-01-24T14:56:27.207Z,47.83
2019-01-24T14:58:56.858Z,49.93
2019-01-24T15:01:27.354Z,54.20
2019-01-24T15:03:57.007Z,54.10
2019-01-24T15:06:26.740Z,54.33
2019-01-24T15:08:56.403Z,53.20
2019-01-24T15:11:26.052Z,53.63
2019-01-24T15:13:59.242Z,55.10
2019-01-24T15:16:32.155Z,54.27
2019-01-24T15:19:02.732Z,53.40
2019-01-24T15:21:32.543Z,52.80
2019-01-24T15:24:02.305Z,51.57
2019-01-24T15:26:31.955Z,53.53
2019-01-24T15:29:01.648Z,53.87
2019-01-24T15:31:31.310Z,52.17
2019-01-24T15:34:00.975Z,50.87
2019-01-24T15:36:30.711Z,51.40
2019-01-24T15:39:00.371Z,51.70
2019-01-24T15:41:30.090Z,51.67
2019-01-24T15:43:59.766Z,50.20
2019-01-24T15:46:29.432Z,51.83
2019-01-24T15:48:59.091Z,51.37
2019-01-24T15:51:28.790Z,52.23
2019-01-24T15:53:58.446Z,50.10
2019-01-24T15:56:28.175Z,50.00
2019-01-24T15:58:57.847Z,52.07
2019-01-24T16:01:27.531Z,50.53
2019-01-24T16:03:57.298Z,51.77
2019-01-24T16:06:26.967Z,50.00
2019-01-24T16:08:56.618Z,50.57
2019-01-24T16:11:26.274Z,51.30
2019-01-24T16:13:55.937Z,51.33
2019-01-24T16:16:25.572Z,51.73
2019-01-24T16:18:55.229Z,50.93
2019-01-24T16:21:24.882Z,50.17
2019-01-24T16:23:54.553Z,49.57
2019-01-24T16:26:24.274Z,49.80
2019-01-24T16:28:53.972Z,50.80
2019-01-24T16:31:23.618Z,51.43
2019-01-24T16:33:53.391Z,50.83
2019-01-24T16:36:23.123Z,51.17
2019-01-24T16:38:52.781Z,50.70
2019-01-24T16:41:22.443Z,51.13
2019-01-24T16:43:52.107Z,49.53
2019-01-24T16:46:21.865Z,49.97
2019-01-24T16:48:51.586Z,50.60
2019-01-24T16:51:21.721Z,50.83
2019-01-24T16:53:51.550Z,50.03
2019-01-24T16:56:21.276Z,49.67
2019-01-24T16:58:50.919Z,49.43
2019-01-24T17:01:22.190Z,50.33
2019-01-24T17:03:51.927Z,49.23
2019-01-24T17:06:21.655Z,49.63
2019-01-24T17:08:52.337Z,49.63
2019-01-24T17:11:22.953Z,49.53
2019-01-24T17:13:52.794Z,49.43
2019-01-24T17:16:22.444Z,49.63
2019-01-24T17:18:52.163Z,52.07
2019-01-24T17:21:21.897Z,49.83
2019-01-24T17:23:51.554Z,49.97
2019-01-24T17:26:21.327Z,49.70
2019-01-24T17:28:51.037Z,49.23
2019-01-24T17:31:20.843Z,48.50
2019-01-24T17:33:50.494Z,49.70
2019-01-24T17:36:20.150Z,48.00
2019-01-24T17:38:49.830Z,49.77
2019-01-24T17:41:19.560Z,49.60
2019-01-24T17:43:49.194Z,48.97
2019-01-24T17:46:18.931Z,48.90
2019-01-24T17:48:48.601Z,49.07
2019-01-24T17:51:18.295Z,49.50
2019-01-24T17:53:48.965Z,48.93
2019-01-24T17:56:18.692Z,48.80
2019-01-24T17:58:48.420Z,48.50
2019-01-24T18:01:18.309Z,48.50
2019-01-24T18:03:48.096Z,48.83
2019-01-24T18:06:17.813Z,49.30
2019-01-24T18:08:47.726Z,48.13
2019-01-24T18:11:17.444Z,48.83
2019-01-24T18:13:47.085Z,48.73
2019-01-24T18:16:16.825Z,48.60
2019-01-24T18:18:46.465Z,47.73
2019-01-24T18:21:16.122Z,48.23
2019-01-24T18:23:45.838Z,48.40
2019-01-24T18:26:15.562Z,48.77
2019-01-24T18:28:45.274Z,48.63
2019-01-24T18:31:15.102Z,48.07
2019-01-24T18:33:44.825Z,48.43
2019-01-24T18:36:15.446Z,50.47
2019-01-24T18:38:45.084Z,48.77
2019-01-24T18:41:15.872Z,48.93
2019-01-24T18:43:45.557Z,48.30
2019-01-24T18:46:15.228Z,48.03
2019-01-24T18:48:44.888Z,47.90
2019-01-24T18:51:15.921Z,48.97
2019-01-24T18:53:45.567Z,48.57
2019-01-24T18:56:15.302Z,47.57
2019-01-24T18:58:44.958Z,49.43
2019-01-24T19:01:15.642Z,48.53
2019-01-24T19:03:45.684Z,49.40
2019-01-24T19:06:15.317Z,48.67
2019-01-24T19:08:45.980Z,48.07
2019-01-24T19:11:15.947Z,47.73
2019-01-24T19:13:45.673Z,48.80
2019-01-24T19:16:15.467Z,48.27
2019-01-24T19:18:45.172Z,50.10
2019-01-24T19:21:14.958Z,50.37
2019-01-24T19:23:44.804Z,50.43
2019-01-24T19:26:19.142Z,50.10
2019-01-24T19:28:50.335Z,48.60
2019-01-24T19:31:19.999Z,50.83
2019-01-24T19:33:49.771Z,50.00
2019-01-24T19:36:20.784Z,50.27
2019-01-24T19:38:53.175Z,50.97
2019-01-24T19:41:22.690Z,49.47
2019-01-24T19:43:52.354Z,49.90
2019-01-24T19:46:22.020Z,51.33
2019-01-24T19:48:51.667Z,50.67
2019-01-24T19:51:24.160Z,51.17
2019-01-24T19:53:53.958Z,50.23
2019-01-24T19:56:23.705Z,50.83
2019-01-24T19:58:53.488Z,50.33
2019-01-24T20:01:23.177Z,51.30
2019-01-24T20:03:53.148Z,49.80
2019-01-24T20:06:22.934Z,50.80
2019-01-24T20:08:52.669Z,50.03
2019-01-24T20:11:22.306Z,49.63
2019-01-24T20:13:51.964Z,50.20
2019-01-24T20:16:21.608Z,50.20
2019-01-24T20:18:52.169Z,50.70
2019-01-24T20:21:21.879Z,49.20
2019-01-24T20:23:51.529Z,50.43
2019-01-24T20:26:21.198Z,50.43
2019-01-24T20:28:50.839Z,50.17
2019-01-24T20:31:20.507Z,49.93
2019-01-24T20:33:50.175Z,50.07
2019-01-24T20:36:19.899Z,50.67
2019-01-24T20:38:49.708Z,49.77
2019-01-24T20:41:19.487Z,50.70
2019-01-24T20:43:49.136Z,50.73
2019-01-24T20:46:18.782Z,49.93
2019-01-24T20:48:48.536Z,50.83
2019-01-24T20:51:18.195Z,50.63
2019-01-24T20:53:47.866Z,51.13
2019-01-24T20:56:17.518Z,51.20
2019-01-24T20:58:47.252Z,50.37
2019-01-24T21:01:16.901Z,50.43
2019-01-24T21:03:46.632Z,50.70
2019-01-24T21:06:16.292Z,50.60
2019-01-24T21:08:45.946Z,50.90
2019-01-24T21:11:15.664Z,50.27
2019-01-24T21:13:45.347Z,50.37
2019-01-24T21:16:15.143Z,51.30
2019-01-24T21:18:44.811Z,50.37
2019-01-24T21:21:14.610Z,50.73
2019-01-24T21:23:44.348Z,50.47
2019-01-24T21:26:14.136Z,50.53
2019-01-24T21:28:43.787Z,50.00
2019-01-24T21:31:13.567Z,51.27
2019-01-24T21:33:43.378Z,51.93
2019-01-24T21:36:13.125Z,51.13
2019-01-24T21:38:42.792Z,50.30
2019-01-24T21:41:12.599Z,49.97
2019-01-24T21:43:42.389Z,49.57
2019-01-24T21:46:12.187Z,49.77
2019-01-24T21:48:41.838Z,50.23
2019-01-24T21:51:11.608Z,49.23
2019-01-24T21:53:41.342Z,49.23
2019-01-24T21:56:11.068Z,49.20
2019-01-24T21:58:40.722Z,47.70
2019-01-24T22:01:10.462Z,49.30
2019-01-24T22:03:40.163Z,49.70
2019-01-24T22:06:09.900Z,48.80
2019-01-24T22:08:39.801Z,48.60
2019-01-24T22:11:09.528Z,50.33
2019-01-24T22:13:39.166Z,49.50
2019-01-24T22:16:09.869Z,48.10
2019-01-24T22:18:39.514Z,48.53
2019-01-24T22:21:09.387Z,48.70
2019-01-24T22:23:39.061Z,49.80
2019-01-24T22:26:08.900Z,48.97
2019-01-24T22:28:38.587Z,50.23
2019-01-24T22:31:08.386Z,47.77
2019-01-24T22:33:38.108Z,48.87
2019-01-24T22:36:07.764Z,49.50
2019-01-24T22:38:37.519Z,49.40
2019-01-24T22:41:07.415Z,49.23
2019-01-24T22:43:37.073Z,50.37
2019-01-24T22:46:06.883Z,50.83
2019-01-24T22:48:36.539Z,51.07
2019-01-24T22:51:06.270Z,47.70
2019-01-24T22:53:35.914Z,50.27
2019-01-24T22:56:05.841Z,49.17
2019-01-24T22:58:35.589Z,48.37
2019-01-24T23:01:42.121Z,49.20
2019-01-24T23:04:29.753Z,47.47
2019-01-24T23:06:59.554Z,48.43
2019-01-24T23:09:29.338Z,49.23
2019-01-24T23:11:59.012Z,49.57
2019-01-24T23:14:28.791Z,49.50
2019-01-24T23:16:58.515Z,49.20
2019-01-24T23:19:28.159Z,48.50
2019-01-24T23:21:58.785Z,49.33
2019-01-24T23:24:28.427Z,49.17
2019-01-24T23:26:58.221Z,49.13
2019-01-24T23:29:27.935Z,48.87
2019-01-24T23:31:57.744Z,49.47
2019-01-24T23:34:27.401Z,47.93
2019-01-24T23:36:57.144Z,49.80
2019-01-24T23:39:26.863Z,48.53
2019-01-24T23:41:56.535Z,48.77
2019-01-24T23:44:26.973Z,49.43
2019-01-24T23:46:56.712Z,50.90
2019-01-24T23:49:26.401Z,49.33
2019-01-24T23:51:56.056Z,50.00
2019-01-24T23:54:25.776Z,48.47
2019-01-24T23:56:55.440Z,48.93
2019-01-24T23:59:26.810Z,48.63
